sensor_id;sensor_type;location;lat;lon;timestamp;P1;durP1;ratioP1;P2;durP2;ratioP2
71637;SDS011;59485;43.542;-5.676;2023-03-14T01:43:32;99.53;;;85.45;;
71637;SDS011;59485;43.542;-5.676;2023-03-14T01:48:24;117.53;;;86.70;;
71637;SDS011;59485;43.542;-5.676;2023-03-14T01:50:52;117.28;;;85.85;;
71637;SDS011;59485;43.542;-5.676;2023-03-14T01:53:18;118.82;;;85.45;;
71637;SDS011;59485;43.542;-5.676;2023-03-14T01:55:48;124.93;;;86.65;;
71637;SDS011;59485;43.542;-5.676;2023-03-14T01:58:17;122.33;;;88.33;;
71637;SDS011;59485;43.542;-5.676;2023-03-14T02:00:45;120.43;;;86.55;;
71637;SDS011;59485;43.542;-5.676;2023-03-14T02:03:13;127.05;;;89.22;;
71637;SDS011;59485;43.542;-5.676;2023-03-14T02:05:41;121.72;;;86.50;;
71637;SDS011;59485;43.542;-5.676;2023-03-14T02:08:10;123.60;;;84.93;;
71637;SDS011;59485;43.542;-5.676;2023-03-14T02:10:39;132.77;;;88.93;;
71637;SDS011;59485;43.542;-5.676;2023-03-14T02:13:08;144.00;;;76.80;;
71637;SDS011;59485;43.542;-5.676;2023-03-14T02:15:34;146.13;;;73.03;;
71637;SDS011;59485;43.542;-5.676;2023-03-14T02:18:00;149.60;;;76.55;;
71637;SDS011;59485;43.542;-5.676;2023-03-14T02:22:59;158.23;;;87.25;;
71637;SDS011;59485;43.542;-5.676;2023-03-14T02:27:59;123.60;;;90.47;;
71637;SDS011;59485;43.542;-5.676;2023-03-14T02:30:27;124.82;;;89.45;;
71637;SDS011;59485;43.542;-5.676;2023-03-14T02:32:57;125.72;;;89.38;;
71637;SDS011;59485;43.542;-5.676;2023-03-14T02:35:30;128.63;;;87.00;;
71637;SDS011;59485;43.542;-5.676;2023-03-14T02:38:47;78.73;;;72.53;;
71637;SDS011;59485;43.542;-5.676;2023-03-14T02:41:21;89.85;;;81.25;;
71637;SDS011;59485;43.542;-5.676;2023-03-14T02:43:46;66.93;;;63.03;;
71637;SDS011;59485;43.542;-5.676;2023-03-14T02:46:13;124.33;;;92.33;;
71637;SDS011;59485;43.542;-5.676;2023-03-14T02:48:49;103.10;;;86.47;;
71637;SDS011;59485;43.542;-5.676;2023-03-14T02:51:18;70.97;;;67.18;;
71637;SDS011;59485;43.542;-5.676;2023-03-14T02:53:45;71.57;;;66.53;;
71637;SDS011;59485;43.542;-5.676;2023-03-14T02:56:11;70.87;;;67.17;;
71637;SDS011;59485;43.542;-5.676;2023-03-14T02:58:36;72.20;;;68.40;;
71637;SDS011;59485;43.542;-5.676;2023-03-14T03:01:02;67.82;;;64.20;;
71637;SDS011;59485;43.542;-5.676;2023-03-14T03:03:28;73.25;;;69.05;;
71637;SDS011;59485;43.542;-5.676;2023-03-14T03:05:54;91.10;;;82.00;;
71637;SDS011;59485;43.542;-5.676;2023-03-14T03:08:21;124.35;;;87.38;;
71637;SDS011;59485;43.542;-5.676;2023-03-14T03:10:48;86.63;;;78.40;;
71637;SDS011;59485;43.542;-5.676;2023-03-14T03:13:14;68.07;;;64.47;;
71637;SDS011;59485;43.542;-5.676;2023-03-14T03:15:40;67.95;;;64.35;;
71637;SDS011;59485;43.542;-5.676;2023-03-14T03:18:06;68.00;;;64.40;;
71637;SDS011;59485;43.542;-5.676;2023-03-14T03:20:32;71.95;;;67.65;;
71637;SDS011;59485;43.542;-5.676;2023-03-14T03:22:58;117.03;;;94.33;;
71637;SDS011;59485;43.542;-5.676;2023-03-14T03:25:24;120.63;;;93.32;;
71637;SDS011;59485;43.542;-5.676;2023-03-14T03:27:50;119.18;;;94.85;;
71637;SDS011;59485;43.542;-5.676;2023-03-14T03:30:16;118.57;;;90.47;;
71637;SDS011;59485;43.542;-5.676;2023-03-14T03:32:41;71.75;;;67.97;;
71637;SDS011;59485;43.542;-5.676;2023-03-14T03:35:07;70.90;;;67.13;;
71637;SDS011;59485;43.542;-5.676;2023-03-14T03:37:33;72.67;;;68.87;;
71637;SDS011;59485;43.542;-5.676;2023-03-14T03:39:59;67.93;;;64.32;;
71637;SDS011;59485;43.542;-5.676;2023-03-14T03:42:28;76.80;;;72.80;;
71637;SDS011;59485;43.542;-5.676;2023-03-14T03:44:54;70.07;;;66.38;;
71637;SDS011;59485;43.542;-5.676;2023-03-14T03:47:19;71.50;;;67.50;;
71637;SDS011;59485;43.542;-5.676;2023-03-14T03:49:45;128.55;;;92.75;;
71637;SDS011;59485;43.542;-5.676;2023-03-14T03:52:10;70.97;;;67.27;;
71637;SDS011;59485;43.542;-5.676;2023-03-14T03:54:36;82.10;;;75.65;;
71637;SDS011;59485;43.542;-5.676;2023-03-14T03:57:01;123.50;;;89.17;;
71637;SDS011;59485;43.542;-5.676;2023-03-14T03:59:27;120.90;;;87.28;;
71637;SDS011;59485;43.542;-5.676;2023-03-14T04:01:53;123.22;;;86.85;;
71637;SDS011;59485;43.542;-5.676;2023-03-14T04:04:18;124.13;;;91.07;;
71637;SDS011;59485;43.542;-5.676;2023-03-14T04:06:44;75.90;;;70.40;;
71637;SDS011;59485;43.542;-5.676;2023-03-14T04:09:10;82.77;;;75.60;;
71637;SDS011;59485;43.542;-5.676;2023-03-14T04:11:36;132.57;;;87.38;;
71637;SDS011;59485;43.542;-5.676;2023-03-14T04:14:03;126.75;;;85.85;;
71637;SDS011;59485;43.542;-5.676;2023-03-14T04:16:29;130.55;;;86.40;;
71637;SDS011;59485;43.542;-5.676;2023-03-14T04:18:56;131.67;;;86.70;;
71637;SDS011;59485;43.542;-5.676;2023-03-14T04:21:22;131.23;;;86.27;;
71637;SDS011;59485;43.542;-5.676;2023-03-14T04:23:48;130.23;;;85.28;;
71637;SDS011;59485;43.542;-5.676;2023-03-14T04:26:13;132.02;;;89.38;;
71637;SDS011;59485;43.542;-5.676;2023-03-14T04:28:39;130.30;;;84.43;;
71637;SDS011;59485;43.542;-5.676;2023-03-14T04:31:12;133.88;;;93.10;;
71637;SDS011;59485;43.542;-5.676;2023-03-14T04:33:39;136.82;;;89.43;;
71637;SDS011;59485;43.542;-5.676;2023-03-14T04:36:05;134.40;;;85.10;;
71637;SDS011;59485;43.542;-5.676;2023-03-14T04:38:32;133.38;;;85.07;;
71637;SDS011;59485;43.542;-5.676;2023-03-14T04:40:58;135.17;;;87.40;;
71637;SDS011;59485;43.542;-5.676;2023-03-14T04:43:24;134.10;;;88.00;;
71637;SDS011;59485;43.542;-5.676;2023-03-14T04:45:51;136.10;;;85.80;;
71637;SDS011;59485;43.542;-5.676;2023-03-14T04:48:19;136.90;;;85.10;;
71637;SDS011;59485;43.542;-5.676;2023-03-14T04:50:45;137.95;;;78.75;;
71637;SDS011;59485;43.542;-5.676;2023-03-14T04:53:12;138.55;;;79.25;;
71637;SDS011;59485;43.542;-5.676;2023-03-14T04:55:37;136.73;;;83.20;;
71637;SDS011;59485;43.542;-5.676;2023-03-14T04:58:03;138.40;;;84.50;;
71637;SDS011;59485;43.542;-5.676;2023-03-14T05:00:28;134.37;;;86.50;;
71637;SDS011;59485;43.542;-5.676;2023-03-14T05:02:54;135.57;;;87.10;;
71637;SDS011;59485;43.542;-5.676;2023-03-14T05:05:20;137.13;;;86.47;;
71637;SDS011;59485;43.542;-5.676;2023-03-14T05:07:45;134.57;;;84.77;;
71637;SDS011;59485;43.542;-5.676;2023-03-14T05:10:11;138.33;;;84.80;;
71637;SDS011;59485;43.542;-5.676;2023-03-14T05:12:37;135.40;;;83.68;;
71637;SDS011;59485;43.542;-5.676;2023-03-14T05:15:02;125.67;;;90.53;;
71637;SDS011;59485;43.542;-5.676;2023-03-14T05:17:29;126.85;;;90.47;;
71637;SDS011;59485;43.542;-5.676;2023-03-14T05:19:57;141.27;;;92.28;;
71637;SDS011;59485;43.542;-5.676;2023-03-14T05:22:22;137.30;;;90.80;;
71637;SDS011;59485;43.542;-5.676;2023-03-14T05:24:48;131.00;;;85.68;;
71637;SDS011;59485;43.542;-5.676;2023-03-14T05:27:13;129.90;;;89.43;;
71637;SDS011;59485;43.542;-5.676;2023-03-14T05:29:39;130.53;;;86.37;;
71637;SDS011;59485;43.542;-5.676;2023-03-14T05:32:04;130.40;;;90.80;;
71637;SDS011;59485;43.542;-5.676;2023-03-14T05:34:30;128.53;;;87.33;;
71637;SDS011;59485;43.542;-5.676;2023-03-14T05:36:56;131.57;;;89.27;;
71637;SDS011;59485;43.542;-5.676;2023-03-14T05:39:21;127.85;;;87.47;;
71637;SDS011;59485;43.542;-5.676;2023-03-14T05:41:47;129.27;;;87.43;;
71637;SDS011;59485;43.542;-5.676;2023-03-14T05:44:13;127.97;;;88.57;;
71637;SDS011;59485;43.542;-5.676;2023-03-14T05:49:06;130.00;;;91.10;;
71637;SDS011;59485;43.542;-5.676;2023-03-14T05:51:32;130.60;;;93.43;;
71637;SDS011;59485;43.542;-5.676;2023-03-14T05:53:57;123.97;;;90.07;;
71637;SDS011;59485;43.542;-5.676;2023-03-14T05:56:23;123.87;;;91.73;;
71637;SDS011;59485;43.542;-5.676;2023-03-14T05:58:48;123.20;;;88.90;;
71637;SDS011;59485;43.542;-5.676;2023-03-14T06:01:14;122.97;;;89.70;;
71637;SDS011;59485;43.542;-5.676;2023-03-14T06:03:39;126.43;;;93.17;;
71637;SDS011;59485;43.542;-5.676;2023-03-14T06:06:05;127.13;;;92.88;;
71637;SDS011;59485;43.542;-5.676;2023-03-14T06:08:31;129.80;;;96.03;;
71637;SDS011;59485;43.542;-5.676;2023-03-14T06:10:56;131.23;;;88.50;;
71637;SDS011;59485;43.542;-5.676;2023-03-14T06:13:22;125.47;;;88.10;;
71637;SDS011;59485;43.542;-5.676;2023-03-14T06:15:48;126.13;;;90.30;;
71637;SDS011;59485;43.542;-5.676;2023-03-14T06:18:16;127.53;;;89.23;;
71637;SDS011;59485;43.542;-5.676;2023-03-14T06:20:42;123.50;;;91.37;;
71637;SDS011;59485;43.542;-5.676;2023-03-14T06:23:10;124.43;;;91.10;;
71637;SDS011;59485;43.542;-5.676;2023-03-14T06:25:36;123.70;;;91.47;;
71637;SDS011;59485;43.542;-5.676;2023-03-14T06:28:02;121.97;;;89.03;;
71637;SDS011;59485;43.542;-5.676;2023-03-14T06:30:27;122.47;;;88.72;;
71637;SDS011;59485;43.542;-5.676;2023-03-14T06:32:53;127.10;;;95.47;;
71637;SDS011;59485;43.542;-5.676;2023-03-14T06:35:20;124.20;;;92.55;;
71637;SDS011;59485;43.542;-5.676;2023-03-14T06:37:47;122.65;;;88.40;;
71637;SDS011;59485;43.542;-5.676;2023-03-14T06:40:12;125.53;;;88.10;;
71637;SDS011;59485;43.542;-5.676;2023-03-14T06:42:42;126.63;;;90.22;;
71637;SDS011;59485;43.542;-5.676;2023-03-14T06:45:08;132.52;;;82.47;;
71637;SDS011;59485;43.542;-5.676;2023-03-14T06:47:34;131.68;;;88.18;;
71637;SDS011;59485;43.542;-5.676;2023-03-14T06:50:00;129.73;;;92.53;;
71637;SDS011;59485;43.542;-5.676;2023-03-14T06:52:26;128.70;;;89.45;;
71637;SDS011;59485;43.542;-5.676;2023-03-14T06:54:52;127.53;;;90.67;;
71637;SDS011;59485;43.542;-5.676;2023-03-14T06:57:17;127.97;;;88.77;;
71637;SDS011;59485;43.542;-5.676;2023-03-14T06:59:43;124.63;;;88.97;;
71637;SDS011;59485;43.542;-5.676;2023-03-14T07:02:11;124.50;;;91.25;;
71637;SDS011;59485;43.542;-5.676;2023-03-14T07:04:37;130.55;;;89.32;;
71637;SDS011;59485;43.542;-5.676;2023-03-14T07:07:03;132.03;;;92.40;;
71637;SDS011;59485;43.542;-5.676;2023-03-14T07:09:29;129.30;;;90.30;;
71637;SDS011;59485;43.542;-5.676;2023-03-14T07:11:55;135.75;;;84.05;;
71637;SDS011;59485;43.542;-5.676;2023-03-14T07:14:20;129.93;;;88.10;;
71637;SDS011;59485;43.542;-5.676;2023-03-14T07:16:46;130.90;;;90.63;;
71637;SDS011;59485;43.542;-5.676;2023-03-14T07:19:11;134.60;;;84.67;;
71637;SDS011;59485;43.542;-5.676;2023-03-14T07:21:37;133.88;;;87.32;;
71637;SDS011;59485;43.542;-5.676;2023-03-14T07:24:02;135.17;;;92.00;;
71637;SDS011;59485;43.542;-5.676;2023-03-14T07:26:28;135.67;;;82.90;;
71637;SDS011;59485;43.542;-5.676;2023-03-14T07:28:54;134.05;;;87.22;;
71637;SDS011;59485;43.542;-5.676;2023-03-14T07:31:20;135.67;;;84.87;;
71637;SDS011;59485;43.542;-5.676;2023-03-14T07:33:45;132.50;;;86.80;;
71637;SDS011;59485;43.542;-5.676;2023-03-14T07:36:11;141.82;;;86.78;;
71637;SDS011;59485;43.542;-5.676;2023-03-14T07:38:36;137.17;;;85.23;;
71637;SDS011;59485;43.542;-5.676;2023-03-14T07:41:03;135.30;;;83.00;;
71637;SDS011;59485;43.542;-5.676;2023-03-14T07:43:30;140.93;;;88.97;;
71637;SDS011;59485;43.542;-5.676;2023-03-14T07:45:56;132.93;;;87.18;;
71637;SDS011;59485;43.542;-5.676;2023-03-14T07:48:21;134.80;;;95.77;;
71637;SDS011;59485;43.542;-5.676;2023-03-14T07:50:50;134.75;;;94.90;;
71637;SDS011;59485;43.542;-5.676;2023-03-14T07:53:16;134.73;;;90.72;;
71637;SDS011;59485;43.542;-5.676;2023-03-14T07:55:42;127.73;;;93.60;;
71637;SDS011;59485;43.542;-5.676;2023-03-14T07:58:07;131.73;;;86.43;;
71637;SDS011;59485;43.542;-5.676;2023-03-14T08:00:33;133.43;;;93.07;;
71637;SDS011;59485;43.542;-5.676;2023-03-14T08:02:58;132.02;;;93.85;;
71637;SDS011;59485;43.542;-5.676;2023-03-14T08:05:24;127.07;;;89.30;;
71637;SDS011;59485;43.542;-5.676;2023-03-14T08:07:49;125.63;;;89.47;;
71637;SDS011;59485;43.542;-5.676;2023-03-14T08:10:15;128.93;;;96.07;;
71637;SDS011;59485;43.542;-5.676;2023-03-14T08:12:48;126.97;;;91.18;;
71637;SDS011;59485;43.542;-5.676;2023-03-14T08:15:19;125.65;;;90.93;;
71637;SDS011;59485;43.542;-5.676;2023-03-14T08:17:44;124.60;;;91.60;;
71637;SDS011;59485;43.542;-5.676;2023-03-14T08:20:10;123.47;;;89.45;;
71637;SDS011;59485;43.542;-5.676;2023-03-14T08:22:37;117.38;;;109.32;;
71637;SDS011;59485;43.542;-5.676;2023-03-14T08:27:28;79.15;;;75.05;;
71637;SDS011;59485;43.542;-5.676;2023-03-14T08:29:54;75.95;;;71.95;;
71637;SDS011;59485;43.542;-5.676;2023-03-14T08:32:19;73.40;;;69.50;;
71637;SDS011;59485;43.542;-5.676;2023-03-14T08:34:45;71.72;;;67.93;;
71637;SDS011;59485;43.542;-5.676;2023-03-14T08:37:11;78.22;;;74.13;;
71637;SDS011;59485;43.542;-5.676;2023-03-14T08:39:37;77.00;;;73.00;;
71637;SDS011;59485;43.542;-5.676;2023-03-14T08:42:02;74.57;;;70.68;;
71637;SDS011;59485;43.542;-5.676;2023-03-14T08:44:28;80.18;;;76.03;;
71637;SDS011;59485;43.542;-5.676;2023-03-14T08:46:54;73.27;;;69.37;;
71637;SDS011;59485;43.542;-5.676;2023-03-14T08:49:20;74.65;;;70.75;;
71637;SDS011;59485;43.542;-5.676;2023-03-14T08:51:46;73.13;;;69.27;;
71637;SDS011;59485;43.542;-5.676;2023-03-14T08:54:11;71.32;;;67.53;;
71637;SDS011;59485;43.542;-5.676;2023-03-14T08:56:37;71.00;;;67.23;;
71637;SDS011;59485;43.542;-5.676;2023-03-14T08:59:03;74.20;;;70.30;;
71637;SDS011;59485;43.542;-5.676;2023-03-14T09:01:29;78.13;;;74.03;;
71637;SDS011;59485;43.542;-5.676;2023-03-14T09:03:55;77.47;;;73.40;;
71637;SDS011;59485;43.542;-5.676;2023-03-14T09:06:20;75.07;;;71.17;;
71637;SDS011;59485;43.542;-5.676;2023-03-14T09:08:46;76.37;;;72.37;;
71637;SDS011;59485;43.542;-5.676;2023-03-14T09:11:14;76.22;;;72.20;;
71637;SDS011;59485;43.542;-5.676;2023-03-14T09:13:40;75.25;;;71.25;;
71637;SDS011;59485;43.542;-5.676;2023-03-14T09:16:06;78.13;;;74.03;;
71637;SDS011;59485;43.542;-5.676;2023-03-14T09:18:32;80.82;;;76.63;;
71637;SDS011;59485;43.542;-5.676;2023-03-14T09:20:58;78.70;;;74.60;;
71637;SDS011;59485;43.542;-5.676;2023-03-14T09:23:23;84.37;;;79.97;;
71637;SDS011;59485;43.542;-5.676;2023-03-14T09:25:53;78.88;;;74.78;;
71637;SDS011;59485;43.542;-5.676;2023-03-14T09:28:23;74.82;;;70.82;;
71637;SDS011;59485;43.542;-5.676;2023-03-14T09:30:49;77.43;;;72.80;;
71637;SDS011;59485;43.542;-5.676;2023-03-14T09:33:15;70.47;;;66.67;;
71637;SDS011;59485;43.542;-5.676;2023-03-14T09:35:42;82.45;;;75.65;;
71637;SDS011;59485;43.542;-5.676;2023-03-14T09:38:07;126.03;;;94.53;;
71637;SDS011;59485;43.542;-5.676;2023-03-14T09:40:37;74.73;;;70.77;;
71637;SDS011;59485;43.542;-5.676;2023-03-14T09:43:03;72.95;;;69.07;;
71637;SDS011;59485;43.542;-5.676;2023-03-14T09:45:31;68.07;;;64.43;;
71637;SDS011;59485;43.542;-5.676;2023-03-14T09:48:00;72.40;;;68.60;;
71637;SDS011;59485;43.542;-5.676;2023-03-14T09:50:42;73.20;;;69.28;;
71637;SDS011;59485;43.542;-5.676;2023-03-14T09:53:12;76.20;;;72.20;;
71637;SDS011;59485;43.542;-5.676;2023-03-14T09:55:43;75.07;;;71.07;;
71637;SDS011;59485;43.542;-5.676;2023-03-14T09:58:16;75.80;;;71.80;;
71637;SDS011;59485;43.542;-5.676;2023-03-14T10:00:47;73.95;;;70.05;;
71637;SDS011;59485;43.542;-5.676;2023-03-14T10:03:25;74.18;;;70.18;;
71637;SDS011;59485;43.542;-5.676;2023-03-14T10:05:54;76.38;;;72.38;;
71637;SDS011;59485;43.542;-5.676;2023-03-14T10:08:21;71.68;;;67.88;;
71637;SDS011;59485;43.542;-5.676;2023-03-14T10:10:46;74.27;;;70.37;;
71637;SDS011;59485;43.542;-5.676;2023-03-14T10:13:13;73.23;;;69.33;;
71637;SDS011;59485;43.542;-5.676;2023-03-14T10:15:52;81.38;;;77.05;;
71637;SDS011;59485;43.542;-5.676;2023-03-14T10:18:24;75.30;;;71.30;;
71637;SDS011;59485;43.542;-5.676;2023-03-14T10:21:16;78.47;;;74.28;;
71637;SDS011;59485;43.542;-5.676;2023-03-14T10:23:53;78.60;;;74.47;;
71637;SDS011;59485;43.542;-5.676;2023-03-14T10:26:23;84.63;;;80.23;;
71637;SDS011;59485;43.542;-5.676;2023-03-14T10:28:52;92.47;;;84.22;;
71637;SDS011;59485;43.542;-5.676;2023-03-14T10:31:26;83.22;;;78.18;;
71637;SDS011;59485;43.542;-5.676;2023-03-14T10:34:04;68.32;;;64.63;;
71637;SDS011;59485;43.542;-5.676;2023-03-14T10:36:30;73.07;;;69.18;;
71637;SDS011;59485;43.542;-5.676;2023-03-14T10:42:04;82.32;;;78.03;;
71637;SDS011;59485;43.542;-5.676;2023-03-14T10:44:37;73.93;;;70.03;;
71637;SDS011;59485;43.542;-5.676;2023-03-14T10:47:04;85.15;;;80.75;;
71637;SDS011;59485;43.542;-5.676;2023-03-14T10:49:34;84.13;;;79.72;;
71637;SDS011;59485;43.542;-5.676;2023-03-14T10:52:02;79.80;;;75.60;;
71637;SDS011;59485;43.542;-5.676;2023-03-14T10:54:37;80.65;;;76.38;;
71637;SDS011;59485;43.542;-5.676;2023-03-14T10:57:03;75.83;;;71.83;;
71637;SDS011;59485;43.542;-5.676;2023-03-14T10:59:35;79.30;;;75.07;;
71637;SDS011;59485;43.542;-5.676;2023-03-14T11:05:14;87.03;;;82.33;;
71637;SDS011;59485;43.542;-5.676;2023-03-14T11:07:51;81.53;;;77.20;;
71637;SDS011;59485;43.542;-5.676;2023-03-14T11:10:34;76.77;;;72.73;;
71637;SDS011;59485;43.542;-5.676;2023-03-14T11:29:22;72.75;;;68.85;;
71637;SDS011;59485;43.542;-5.676;2023-03-14T11:31:49;75.07;;;71.07;;
71637;SDS011;59485;43.542;-5.676;2023-03-14T11:34:28;74.47;;;70.47;;
71637;SDS011;59485;43.542;-5.676;2023-03-14T11:39:41;71.35;;;67.55;;
71637;SDS011;59485;43.542;-5.676;2023-03-14T11:42:15;73.43;;;69.53;;
71637;SDS011;59485;43.542;-5.676;2023-03-14T11:44:43;71.57;;;67.78;;
71637;SDS011;59485;43.542;-5.676;2023-03-14T11:49:49;74.25;;;70.30;;
71637;SDS011;59485;43.542;-5.676;2023-03-14T11:54:55;76.50;;;72.45;;
71637;SDS011;59485;43.542;-5.676;2023-03-14T11:57:27;73.60;;;69.70;;
71637;SDS011;59485;43.542;-5.676;2023-03-14T12:11:21;76.30;;;72.20;;
71637;SDS011;59485;43.542;-5.676;2023-03-14T12:13:58;77.40;;;73.25;;
71637;SDS011;59485;43.542;-5.676;2023-03-14T12:18:54;77.03;;;72.93;;
71637;SDS011;59485;43.542;-5.676;2023-03-14T12:21:20;74.00;;;70.10;;
71637;SDS011;59485;43.542;-5.676;2023-03-14T12:23:52;78.13;;;73.93;;
71637;SDS011;59485;43.542;-5.676;2023-03-14T12:26:23;72.40;;;68.57;;
71637;SDS011;59485;43.542;-5.676;2023-03-14T12:28:51;73.40;;;69.43;;
71637;SDS011;59485;43.542;-5.676;2023-03-14T12:42:38;71.78;;;67.93;;
71637;SDS011;59485;43.542;-5.676;2023-03-14T12:50:24;74.33;;;70.43;;
71637;SDS011;59485;43.542;-5.676;2023-03-14T12:55:41;77.75;;;73.70;;
71637;SDS011;59485;43.542;-5.676;2023-03-14T12:58:26;71.18;;;67.40;;
71637;SDS011;59485;43.542;-5.676;2023-03-14T13:01:00;72.78;;;68.90;;
71637;SDS011;59485;43.542;-5.676;2023-03-14T13:06:55;71.00;;;67.22;;
71637;SDS011;59485;43.542;-5.676;2023-03-14T13:11:51;73.15;;;68.80;;
71637;SDS011;59485;43.542;-5.676;2023-03-14T13:14:19;73.00;;;69.10;;
71637;SDS011;59485;43.542;-5.676;2023-03-14T13:16:48;75.65;;;71.63;;
71637;SDS011;59485;43.542;-5.676;2023-03-14T13:19:18;73.03;;;69.13;;
71637;SDS011;59485;43.542;-5.676;2023-03-14T13:21:48;74.82;;;70.82;;
71637;SDS011;59485;43.542;-5.676;2023-03-14T13:24:21;72.38;;;68.53;;
71637;SDS011;59485;43.542;-5.676;2023-03-14T13:26:49;74.87;;;70.87;;
71637;SDS011;59485;43.542;-5.676;2023-03-14T13:29:23;73.90;;;69.95;;
71637;SDS011;59485;43.542;-5.676;2023-03-14T13:31:54;72.32;;;68.43;;
71637;SDS011;59485;43.542;-5.676;2023-03-14T13:34:25;73.28;;;69.35;;
71637;SDS011;59485;43.542;-5.676;2023-03-14T13:36:54;79.45;;;75.25;;
71637;SDS011;59485;43.542;-5.676;2023-03-14T13:39:21;73.73;;;69.87;;
71637;SDS011;59485;43.542;-5.676;2023-03-14T13:41:49;82.22;;;77.93;;
71637;SDS011;59485;43.542;-5.676;2023-03-14T13:44:34;90.57;;;85.93;;
71637;SDS011;59485;43.542;-5.676;2023-03-14T13:47:04;80.88;;;76.68;;
71637;SDS011;59485;43.542;-5.676;2023-03-14T13:49:32;90.05;;;85.45;;
71637;SDS011;59485;43.542;-5.676;2023-03-14T13:52:00;86.07;;;81.57;;
71637;SDS011;59485;43.542;-5.676;2023-03-14T13:54:27;116.65;;;110.85;;
71637;SDS011;59485;43.542;-5.676;2023-03-14T13:56:59;88.95;;;84.40;;
71637;SDS011;59485;43.542;-5.676;2023-03-14T13:59:30;95.03;;;90.15;;
71637;SDS011;59485;43.542;-5.676;2023-03-14T14:02:01;105.95;;;100.60;;
71637;SDS011;59485;43.542;-5.676;2023-03-14T14:04:32;81.20;;;77.00;;
71637;SDS011;59485;43.542;-5.676;2023-03-14T14:07:05;98.03;;;93.03;;
71637;SDS011;59485;43.542;-5.676;2023-03-14T14:09:40;92.40;;;87.70;;
71637;SDS011;59485;43.542;-5.676;2023-03-14T14:12:11;98.77;;;93.73;;
71637;SDS011;59485;43.542;-5.676;2023-03-14T14:17:48;79.85;;;75.65;;
71637;SDS011;59485;43.542;-5.676;2023-03-14T14:20:27;87.72;;;83.22;;
71637;SDS011;59485;43.542;-5.676;2023-03-14T14:23:06;95.75;;;90.90;;
71637;SDS011;59485;43.542;-5.676;2023-03-14T14:25:36;75.97;;;71.97;;
71637;SDS011;59485;43.542;-5.676;2023-03-14T14:28:36;75.68;;;71.68;;
71637;SDS011;59485;43.542;-5.676;2023-03-14T14:31:43;76.47;;;72.47;;
71637;SDS011;59485;43.542;-5.676;2023-03-14T14:42:04;74.90;;;70.90;;
71637;SDS011;59485;43.542;-5.676;2023-03-14T14:44:38;81.30;;;76.90;;
71637;SDS011;59485;43.542;-5.676;2023-03-14T14:47:04;86.73;;;82.27;;
71637;SDS011;59485;43.542;-5.676;2023-03-14T14:49:30;83.35;;;79.03;;
71637;SDS011;59485;43.542;-5.676;2023-03-14T14:52:01;91.65;;;86.88;;
71637;SDS011;59485;43.542;-5.676;2023-03-14T14:54:33;77.05;;;73.00;;
71637;SDS011;59485;43.542;-5.676;2023-03-14T14:57:04;89.47;;;84.90;;
71637;SDS011;59485;43.542;-5.676;2023-03-14T14:59:31;93.55;;;88.75;;
71637;SDS011;59485;43.542;-5.676;2023-03-14T15:01:59;115.82;;;110.05;;
71637;SDS011;59485;43.542;-5.676;2023-03-14T15:04:26;97.03;;;92.10;;
71637;SDS011;59485;43.542;-5.676;2023-03-14T15:06:55;89.65;;;84.97;;
71637;SDS011;59485;43.542;-5.676;2023-03-14T15:09:22;98.10;;;93.13;;
71637;SDS011;59485;43.542;-5.676;2023-03-14T15:11:49;95.00;;;90.10;;
71637;SDS011;59485;43.542;-5.676;2023-03-14T15:14:15;93.40;;;88.60;;
71637;SDS011;59485;43.542;-5.676;2023-03-14T15:16:40;128.33;;;122.03;;
71637;SDS011;59485;43.542;-5.676;2023-03-14T15:19:39;148.10;;;140.95;;
71637;SDS011;59485;43.542;-5.676;2023-03-14T15:21:58;113.10;;;107.45;;
71637;SDS011;59485;43.542;-5.676;2023-03-14T15:24:24;102.70;;;97.50;;
71637;SDS011;59485;43.542;-5.676;2023-03-14T15:26:50;111.47;;;105.93;;
71637;SDS011;59485;43.542;-5.676;2023-03-14T15:29:16;142.50;;;135.65;;
71637;SDS011;59485;43.542;-5.676;2023-03-14T15:31:43;82.93;;;78.73;;
71637;SDS011;59485;43.542;-5.676;2023-03-14T15:36:34;198.80;;;189.85;;
71637;SDS011;59485;43.542;-5.676;2023-03-14T15:39:01;197.52;;;188.70;;
